sensor_id;sensor_type;location;lat;lon;timestamp;P1;durP1;ratioP1;P2;durP2;ratioP2
1026;SDS011;502;48.746;9.214;2022-10-17T00:00:09;5.93;;;2.47;;
1026;SDS011;502;48.746;9.214;2022-10-17T00:02:36;5.23;;;3.30;;
1026;SDS011;502;48.746;9.214;2022-10-17T00:05:03;5.43;;;3.50;;
1026;SDS011;502;48.746;9.214;2022-10-17T00:07:30;4.20;;;3.03;;
1026;SDS011;502;48.746;9.214;2022-10-17T00:09:56;5.60;;;3.33;;
1026;SDS011;502;48.746;9.214;2022-10-17T00:12:23;4.83;;;3.17;;
1026;SDS011;502;48.746;9.214;2022-10-17T00:14:50;3.20;;;2.90;;
1026;SDS011;502;48.746;9.214;2022-10-17T00:17:18;5.40;;;3.10;;
1026;SDS011;502;48.746;9.214;2022-10-17T00:19:45;4.40;;;2.80;;
1026;SDS011;502;48.746;9.214;2022-10-17T00:22:11;4.87;;;2.90;;
1026;SDS011;502;48.746;9.214;2022-10-17T00:24:38;3.90;;;2.80;;
1026;SDS011;502;48.746;9.214;2022-10-17T00:27:05;3.47;;;2.97;;
1026;SDS011;502;48.746;9.214;2022-10-17T00:29:31;3.47;;;2.63;;
1026;SDS011;502;48.746;9.214;2022-10-17T00:31:58;3.80;;;2.77;;
1026;SDS011;502;48.746;9.214;2022-10-17T00:34:27;3.80;;;2.83;;
1026;SDS011;502;48.746;9.214;2022-10-17T00:36:55;3.30;;;3.00;;
1026;SDS011;502;48.746;9.214;2022-10-17T00:39:23;4.40;;;3.13;;
1026;SDS011;502;48.746;9.214;2022-10-17T00:41:49;5.43;;;2.90;;
1026;SDS011;502;48.746;9.214;2022-10-17T00:47:27;2.73;;;2.53;;
1026;SDS011;502;48.746;9.214;2022-10-17T00:49:55;4.73;;;3.03;;
1026;SDS011;502;48.746;9.214;2022-10-17T00:52:26;6.80;;;2.77;;
1026;SDS011;502;48.746;9.214;2022-10-17T00:54:55;3.17;;;2.67;;
1026;SDS011;502;48.746;9.214;2022-10-17T00:57:24;3.63;;;3.10;;
1026;SDS011;502;48.746;9.214;2022-10-17T00:59:51;3.50;;;3.07;;
1026;SDS011;502;48.746;9.214;2022-10-17T01:02:20;5.03;;;3.47;;
1026;SDS011;502;48.746;9.214;2022-10-17T01:04:48;4.97;;;3.63;;
1026;SDS011;502;48.746;9.214;2022-10-17T01:07:17;3.97;;;2.87;;
1026;SDS011;502;48.746;9.214;2022-10-17T01:09:44;3.67;;;3.00;;
1026;SDS011;502;48.746;9.214;2022-10-17T01:12:13;3.53;;;2.73;;
1026;SDS011;502;48.746;9.214;2022-10-17T01:14:45;2.77;;;2.50;;
1026;SDS011;502;48.746;9.214;2022-10-17T01:17:18;3.50;;;2.57;;
1026;SDS011;502;48.746;9.214;2022-10-17T01:19:55;5.43;;;3.20;;
1026;SDS011;502;48.746;9.214;2022-10-17T01:22:32;5.33;;;2.70;;
1026;SDS011;502;48.746;9.214;2022-10-17T01:25:06;3.40;;;3.10;;
1026;SDS011;502;48.746;9.214;2022-10-17T01:27:48;3.83;;;2.87;;
1026;SDS011;502;48.746;9.214;2022-10-17T01:30:28;3.47;;;3.17;;
1026;SDS011;502;48.746;9.214;2022-10-17T01:33:16;3.60;;;2.70;;
1026;SDS011;502;48.746;9.214;2022-10-17T01:35:47;4.20;;;2.67;;
1026;SDS011;502;48.746;9.214;2022-10-17T01:38:19;3.97;;;2.87;;
1026;SDS011;502;48.746;9.214;2022-10-17T01:40:49;4.43;;;2.97;;
1026;SDS011;502;48.746;9.214;2022-10-17T01:43:20;4.20;;;3.03;;
1026;SDS011;502;48.746;9.214;2022-10-17T01:45:50;4.13;;;3.73;;
1026;SDS011;502;48.746;9.214;2022-10-17T01:48:21;3.07;;;2.70;;
1026;SDS011;502;48.746;9.214;2022-10-17T01:50:50;5.83;;;3.30;;
1026;SDS011;502;48.746;9.214;2022-10-17T01:53:20;3.57;;;2.73;;
1026;SDS011;502;48.746;9.214;2022-10-17T01:55:49;3.53;;;2.80;;
1026;SDS011;502;48.746;9.214;2022-10-17T01:58:19;3.20;;;2.87;;
1026;SDS011;502;48.746;9.214;2022-10-17T02:00:48;5.00;;;2.60;;
1026;SDS011;502;48.746;9.214;2022-10-17T02:03:16;4.30;;;3.17;;
1026;SDS011;502;48.746;9.214;2022-10-17T02:05:46;8.10;;;3.17;;
1026;SDS011;502;48.746;9.214;2022-10-17T02:08:13;4.60;;;3.00;;
1026;SDS011;502;48.746;9.214;2022-10-17T02:10:51;3.50;;;3.03;;
1026;SDS011;502;48.746;9.214;2022-10-17T02:13:23;4.00;;;2.90;;
1026;SDS011;502;48.746;9.214;2022-10-17T02:15:58;4.53;;;2.43;;
1026;SDS011;502;48.746;9.214;2022-10-17T02:18:42;5.20;;;3.43;;
1026;SDS011;502;48.746;9.214;2022-10-17T02:21:32;3.60;;;3.03;;
1026;SDS011;502;48.746;9.214;2022-10-17T02:24:08;4.80;;;2.97;;
1026;SDS011;502;48.746;9.214;2022-10-17T02:26:43;4.70;;;3.10;;
1026;SDS011;502;48.746;9.214;2022-10-17T02:29:15;6.77;;;3.57;;
1026;SDS011;502;48.746;9.214;2022-10-17T02:31:44;3.20;;;2.90;;
1026;SDS011;502;48.746;9.214;2022-10-17T02:34:14;3.93;;;3.00;;
1026;SDS011;502;48.746;9.214;2022-10-17T02:36:47;2.97;;;2.67;;
1026;SDS011;502;48.746;9.214;2022-10-17T02:39:15;2.93;;;2.63;;
1026;SDS011;502;48.746;9.214;2022-10-17T02:41:42;4.57;;;3.10;;
1026;SDS011;502;48.746;9.214;2022-10-17T02:44:10;4.23;;;2.97;;
1026;SDS011;502;48.746;9.214;2022-10-17T02:46:37;3.60;;;3.20;;
1026;SDS011;502;48.746;9.214;2022-10-17T02:49:06;8.53;;;3.47;;
1026;SDS011;502;48.746;9.214;2022-10-17T02:51:41;3.10;;;2.80;;
1026;SDS011;502;48.746;9.214;2022-10-17T02:54:13;3.73;;;2.80;;
1026;SDS011;502;48.746;9.214;2022-10-17T02:56:45;5.60;;;3.10;;
1026;SDS011;502;48.746;9.214;2022-10-17T02:59:16;6.30;;;3.20;;
1026;SDS011;502;48.746;9.214;2022-10-17T03:01:45;3.00;;;2.70;;
1026;SDS011;502;48.746;9.214;2022-10-17T03:04:13;3.10;;;2.60;;
1026;SDS011;502;48.746;9.214;2022-10-17T03:06:41;4.43;;;2.90;;
1026;SDS011;502;48.746;9.214;2022-10-17T03:09:07;3.20;;;2.70;;
1026;SDS011;502;48.746;9.214;2022-10-17T03:11:36;2.90;;;2.60;;
1026;SDS011;502;48.746;9.214;2022-10-17T03:14:05;4.93;;;2.67;;
1026;SDS011;502;48.746;9.214;2022-10-17T03:16:32;3.50;;;3.00;;
1026;SDS011;502;48.746;9.214;2022-10-17T03:18:59;8.80;;;3.20;;
1026;SDS011;502;48.746;9.214;2022-10-17T03:21:25;6.00;;;3.80;;
1026;SDS011;502;48.746;9.214;2022-10-17T03:23:53;4.40;;;3.30;;
1026;SDS011;502;48.746;9.214;2022-10-17T03:26:21;5.83;;;3.10;;
1026;SDS011;502;48.746;9.214;2022-10-17T03:28:50;6.90;;;3.87;;
1026;SDS011;502;48.746;9.214;2022-10-17T03:31:16;5.60;;;3.47;;
1026;SDS011;502;48.746;9.214;2022-10-17T03:33:44;4.50;;;3.67;;
1026;SDS011;502;48.746;9.214;2022-10-17T03:36:11;4.27;;;3.87;;
1026;SDS011;502;48.746;9.214;2022-10-17T03:38:41;4.30;;;3.90;;
1026;SDS011;502;48.746;9.214;2022-10-17T03:41:09;4.47;;;3.83;;
1026;SDS011;502;48.746;9.214;2022-10-17T03:43:37;6.03;;;3.20;;
1026;SDS011;502;48.746;9.214;2022-10-17T03:46:06;4.10;;;3.70;;
1026;SDS011;502;48.746;9.214;2022-10-17T03:48:33;5.53;;;3.37;;
1026;SDS011;502;48.746;9.214;2022-10-17T03:51:02;4.90;;;3.80;;
1026;SDS011;502;48.746;9.214;2022-10-17T03:53:33;3.93;;;3.40;;
1026;SDS011;502;48.746;9.214;2022-10-17T03:56:07;4.60;;;3.50;;
1026;SDS011;502;48.746;9.214;2022-10-17T03:58:35;5.30;;;3.50;;
1026;SDS011;502;48.746;9.214;2022-10-17T04:01:02;6.73;;;4.30;;
1026;SDS011;502;48.746;9.214;2022-10-17T04:03:31;3.47;;;3.17;;
1026;SDS011;502;48.746;9.214;2022-10-17T04:05:59;3.17;;;2.87;;
1026;SDS011;502;48.746;9.214;2022-10-17T04:08:28;4.90;;;3.53;;
1026;SDS011;502;48.746;9.214;2022-10-17T04:11:06;4.40;;;3.10;;
1026;SDS011;502;48.746;9.214;2022-10-17T04:13:33;8.33;;;3.20;;
1026;SDS011;502;48.746;9.214;2022-10-17T04:16:01;3.67;;;2.83;;
1026;SDS011;502;48.746;9.214;2022-10-17T04:18:31;6.57;;;3.70;;
1026;SDS011;502;48.746;9.214;2022-10-17T04:20:59;5.57;;;3.50;;
1026;SDS011;502;48.746;9.214;2022-10-17T04:23:26;4.67;;;3.30;;
1026;SDS011;502;48.746;9.214;2022-10-17T04:25:58;4.67;;;3.23;;
1026;SDS011;502;48.746;9.214;2022-10-17T04:28:26;4.20;;;3.50;;
1026;SDS011;502;48.746;9.214;2022-10-17T04:30:56;3.63;;;3.23;;
1026;SDS011;502;48.746;9.214;2022-10-17T04:33:23;4.30;;;3.60;;
1026;SDS011;502;48.746;9.214;2022-10-17T04:35:57;4.20;;;3.80;;
1026;SDS011;502;48.746;9.214;2022-10-17T04:38:25;4.83;;;3.77;;
1026;SDS011;502;48.746;9.214;2022-10-17T04:40:53;4.10;;;3.63;;
1026;SDS011;502;48.746;9.214;2022-10-17T04:43:19;3.80;;;3.43;;
1026;SDS011;502;48.746;9.214;2022-10-17T04:45:47;6.10;;;3.77;;
1026;SDS011;502;48.746;9.214;2022-10-17T04:48:14;8.70;;;3.83;;
1026;SDS011;502;48.746;9.214;2022-10-17T04:50:41;4.83;;;4.43;;
1026;SDS011;502;48.746;9.214;2022-10-17T04:53:31;5.43;;;4.00;;
1026;SDS011;502;48.746;9.214;2022-10-17T04:55:58;5.70;;;4.00;;
1026;SDS011;502;48.746;9.214;2022-10-17T04:58:27;5.53;;;3.83;;
1026;SDS011;502;48.746;9.214;2022-10-17T05:00:54;4.33;;;3.93;;
1026;SDS011;502;48.746;9.214;2022-10-17T05:03:25;5.70;;;4.00;;
1026;SDS011;502;48.746;9.214;2022-10-17T05:05:52;5.40;;;4.50;;
1026;SDS011;502;48.746;9.214;2022-10-17T05:08:19;4.73;;;3.63;;
1026;SDS011;502;48.746;9.214;2022-10-17T05:10:47;3.70;;;3.40;;
1026;SDS011;502;48.746;9.214;2022-10-17T05:13:14;4.20;;;3.77;;
1026;SDS011;502;48.746;9.214;2022-10-17T05:15:41;4.40;;;3.77;;
1026;SDS011;502;48.746;9.214;2022-10-17T05:18:07;5.73;;;3.60;;
1026;SDS011;502;48.746;9.214;2022-10-17T05:20:35;5.57;;;3.50;;
1026;SDS011;502;48.746;9.214;2022-10-17T05:23:02;4.23;;;3.73;;
1026;SDS011;502;48.746;9.214;2022-10-17T05:25:34;6.07;;;3.63;;
1026;SDS011;502;48.746;9.214;2022-10-17T05:28:02;5.87;;;3.83;;
1026;SDS011;502;48.746;9.214;2022-10-17T05:30:29;5.40;;;3.90;;
1026;SDS011;502;48.746;9.214;2022-10-17T05:32:59;6.73;;;4.40;;
1026;SDS011;502;48.746;9.214;2022-10-17T05:35:25;4.60;;;3.70;;
1026;SDS011;502;48.746;9.214;2022-10-17T05:37:52;8.70;;;4.07;;
1026;SDS011;502;48.746;9.214;2022-10-17T05:40:20;6.07;;;4.53;;
1026;SDS011;502;48.746;9.214;2022-10-17T05:42:50;3.53;;;2.87;;
1026;SDS011;502;48.746;9.214;2022-10-17T05:45:19;3.43;;;3.00;;
1026;SDS011;502;48.746;9.214;2022-10-17T05:47:46;8.50;;;3.63;;
1026;SDS011;502;48.746;9.214;2022-10-17T05:50:13;3.87;;;3.57;;
1026;SDS011;502;48.746;9.214;2022-10-17T05:52:59;5.17;;;3.23;;
1026;SDS011;502;48.746;9.214;2022-10-17T05:55:27;4.20;;;3.40;;
1026;SDS011;502;48.746;9.214;2022-10-17T05:57:53;3.97;;;3.40;;
1026;SDS011;502;48.746;9.214;2022-10-17T06:00:23;8.90;;;3.23;;
1026;SDS011;502;48.746;9.214;2022-10-17T06:02:55;4.40;;;3.50;;
1026;SDS011;502;48.746;9.214;2022-10-17T06:05:23;3.90;;;3.17;;
1026;SDS011;502;48.746;9.214;2022-10-17T06:07:49;3.67;;;3.37;;
1026;SDS011;502;48.746;9.214;2022-10-17T06:10:17;3.83;;;3.53;;
1026;SDS011;502;48.746;9.214;2022-10-17T06:12:44;4.63;;;3.80;;
1026;SDS011;502;48.746;9.214;2022-10-17T06:15:12;9.03;;;3.93;;
1026;SDS011;502;48.746;9.214;2022-10-17T06:17:44;4.30;;;3.07;;
1026;SDS011;502;48.746;9.214;2022-10-17T06:20:10;4.53;;;3.77;;
1026;SDS011;502;48.746;9.214;2022-10-17T06:22:37;5.70;;;4.20;;
1026;SDS011;502;48.746;9.214;2022-10-17T06:25:10;5.47;;;4.97;;
1026;SDS011;502;48.746;9.214;2022-10-17T06:27:37;5.70;;;4.27;;
1026;SDS011;502;48.746;9.214;2022-10-17T06:30:04;10.80;;;4.60;;
1026;SDS011;502;48.746;9.214;2022-10-17T06:32:31;5.17;;;3.80;;
1026;SDS011;502;48.746;9.214;2022-10-17T06:34:59;7.63;;;4.20;;
1026;SDS011;502;48.746;9.214;2022-10-17T06:37:29;6.17;;;3.43;;
1026;SDS011;502;48.746;9.214;2022-10-17T06:39:57;6.37;;;4.03;;
1026;SDS011;502;48.746;9.214;2022-10-17T06:42:24;3.97;;;3.40;;
1026;SDS011;502;48.746;9.214;2022-10-17T06:45:23;5.87;;;4.00;;
1026;SDS011;502;48.746;9.214;2022-10-17T06:47:55;5.97;;;3.67;;
1026;SDS011;502;48.746;9.214;2022-10-17T06:50:43;6.40;;;3.57;;
1026;SDS011;502;48.746;9.214;2022-10-17T06:53:14;4.90;;;3.63;;
1026;SDS011;502;48.746;9.214;2022-10-17T06:55:50;3.40;;;3.00;;
1026;SDS011;502;48.746;9.214;2022-10-17T06:58:24;4.00;;;3.60;;
1026;SDS011;502;48.746;9.214;2022-10-17T07:01:04;4.50;;;3.67;;
1026;SDS011;502;48.746;9.214;2022-10-17T07:03:33;5.23;;;4.13;;
1026;SDS011;502;48.746;9.214;2022-10-17T07:06:01;4.90;;;4.40;;
1026;SDS011;502;48.746;9.214;2022-10-17T07:08:28;7.53;;;4.50;;
1026;SDS011;502;48.746;9.214;2022-10-17T07:10:55;4.40;;;4.00;;
1026;SDS011;502;48.746;9.214;2022-10-17T07:13:22;5.20;;;4.37;;
1026;SDS011;502;48.746;9.214;2022-10-17T07:15:49;5.80;;;4.00;;
1026;SDS011;502;48.746;9.214;2022-10-17T07:18:16;5.90;;;3.70;;
1026;SDS011;502;48.746;9.214;2022-10-17T07:20:43;4.77;;;3.70;;
1026;SDS011;502;48.746;9.214;2022-10-17T07:23:19;6.27;;;3.50;;
1026;SDS011;502;48.746;9.214;2022-10-17T07:25:46;3.83;;;3.53;;
1026;SDS011;502;48.746;9.214;2022-10-17T07:28:14;5.80;;;4.60;;
1026;SDS011;502;48.746;9.214;2022-10-17T07:30:42;5.57;;;3.33;;
1026;SDS011;502;48.746;9.214;2022-10-17T07:33:10;4.80;;;3.93;;
1026;SDS011;502;48.746;9.214;2022-10-17T07:35:37;5.43;;;3.60;;
1026;SDS011;502;48.746;9.214;2022-10-17T07:38:06;4.47;;;3.17;;
1026;SDS011;502;48.746;9.214;2022-10-17T07:40:34;4.10;;;3.30;;
1026;SDS011;502;48.746;9.214;2022-10-17T07:43:01;4.83;;;3.30;;
1026;SDS011;502;48.746;9.214;2022-10-17T07:45:28;7.40;;;2.80;;
1026;SDS011;502;48.746;9.214;2022-10-17T07:47:55;5.47;;;3.07;;
1026;SDS011;502;48.746;9.214;2022-10-17T07:50:22;5.20;;;3.70;;
1026;SDS011;502;48.746;9.214;2022-10-17T07:52:49;6.73;;;3.13;;
1026;SDS011;502;48.746;9.214;2022-10-17T07:55:16;4.80;;;2.70;;
1026;SDS011;502;48.746;9.214;2022-10-17T07:57:44;4.10;;;2.90;;
1026;SDS011;502;48.746;9.214;2022-10-17T08:00:11;4.43;;;2.70;;
1026;SDS011;502;48.746;9.214;2022-10-17T08:02:37;4.80;;;2.80;;
1026;SDS011;502;48.746;9.214;2022-10-17T08:05:05;4.53;;;2.67;;
1026;SDS011;502;48.746;9.214;2022-10-17T08:07:32;4.70;;;2.93;;
1026;SDS011;502;48.746;9.214;2022-10-17T08:09:58;4.03;;;2.33;;
1026;SDS011;502;48.746;9.214;2022-10-17T08:12:25;5.20;;;2.60;;
1026;SDS011;502;48.746;9.214;2022-10-17T08:14:57;3.30;;;2.70;;
1026;SDS011;502;48.746;9.214;2022-10-17T08:17:24;5.20;;;2.70;;
1026;SDS011;502;48.746;9.214;2022-10-17T08:19:50;3.87;;;2.57;;
1026;SDS011;502;48.746;9.214;2022-10-17T08:22:17;3.37;;;2.80;;
1026;SDS011;502;48.746;9.214;2022-10-17T08:24:44;3.80;;;3.03;;
1026;SDS011;502;48.746;9.214;2022-10-17T08:27:11;5.63;;;3.20;;
1026;SDS011;502;48.746;9.214;2022-10-17T08:29:38;5.27;;;3.57;;
1026;SDS011;502;48.746;9.214;2022-10-17T08:32:07;8.13;;;3.60;;
1026;SDS011;502;48.746;9.214;2022-10-17T08:34:34;4.53;;;2.80;;
1026;SDS011;502;48.746;9.214;2022-10-17T08:37:01;7.20;;;3.20;;
1026;SDS011;502;48.746;9.214;2022-10-17T08:39:27;4.63;;;2.60;;
1026;SDS011;502;48.746;9.214;2022-10-17T08:41:58;4.63;;;3.00;;
1026;SDS011;502;48.746;9.214;2022-10-17T08:44:32;3.40;;;2.80;;
1026;SDS011;502;48.746;9.214;2022-10-17T08:47:06;6.23;;;3.50;;
1026;SDS011;502;48.746;9.214;2022-10-17T08:49:39;5.27;;;2.87;;
1026;SDS011;502;48.746;9.214;2022-10-17T08:52:14;10.27;;;3.20;;
1026;SDS011;502;48.746;9.214;2022-10-17T08:54:44;4.73;;;3.30;;
1026;SDS011;502;48.746;9.214;2022-10-17T08:57:12;7.13;;;3.40;;
1026;SDS011;502;48.746;9.214;2022-10-17T08:59:40;7.30;;;3.37;;
1026;SDS011;502;48.746;9.214;2022-10-17T09:02:16;9.10;;;3.60;;
1026;SDS011;502;48.746;9.214;2022-10-17T09:04:56;5.03;;;3.50;;
1026;SDS011;502;48.746;9.214;2022-10-17T09:07:41;7.80;;;3.73;;
1026;SDS011;502;48.746;9.214;2022-10-17T09:10:13;4.30;;;3.63;;
1026;SDS011;502;48.746;9.214;2022-10-17T09:12:46;10.10;;;4.30;;
1026;SDS011;502;48.746;9.214;2022-10-17T09:15:28;5.23;;;3.70;;
1026;SDS011;502;48.746;9.214;2022-10-17T09:18:06;7.53;;;3.70;;
1026;SDS011;502;48.746;9.214;2022-10-17T09:20:35;4.63;;;3.30;;
1026;SDS011;502;48.746;9.214;2022-10-17T09:23:10;5.37;;;3.50;;
1026;SDS011;502;48.746;9.214;2022-10-17T09:25:40;8.03;;;3.37;;
1026;SDS011;502;48.746;9.214;2022-10-17T09:28:16;6.40;;;3.50;;
1026;SDS011;502;48.746;9.214;2022-10-17T09:30:46;6.20;;;3.10;;
1026;SDS011;502;48.746;9.214;2022-10-17T09:33:17;3.60;;;2.87;;
1026;SDS011;502;48.746;9.214;2022-10-17T09:35:47;8.07;;;3.17;;
1026;SDS011;502;48.746;9.214;2022-10-17T09:38:15;5.50;;;3.40;;
1026;SDS011;502;48.746;9.214;2022-10-17T09:40:43;5.50;;;3.33;;
1026;SDS011;502;48.746;9.214;2022-10-17T09:43:12;4.20;;;3.10;;
1026;SDS011;502;48.746;9.214;2022-10-17T09:45:40;3.40;;;3.10;;
1026;SDS011;502;48.746;9.214;2022-10-17T09:48:13;3.50;;;3.20;;
1026;SDS011;502;48.746;9.214;2022-10-17T09:50:45;5.33;;;3.13;;
1026;SDS011;502;48.746;9.214;2022-10-17T09:53:13;4.43;;;3.07;;
1026;SDS011;502;48.746;9.214;2022-10-17T09:55:46;7.93;;;3.67;;
1026;SDS011;502;48.746;9.214;2022-10-17T09:58:13;3.47;;;2.93;;
1026;SDS011;502;48.746;9.214;2022-10-17T10:00:42;4.00;;;3.30;;
1026;SDS011;502;48.746;9.214;2022-10-17T10:03:12;5.63;;;3.37;;
1026;SDS011;502;48.746;9.214;2022-10-17T10:05:42;4.10;;;3.10;;
1026;SDS011;502;48.746;9.214;2022-10-17T10:08:25;3.30;;;2.97;;
1026;SDS011;502;48.746;9.214;2022-10-17T10:10:58;7.83;;;2.97;;
1026;SDS011;502;48.746;9.214;2022-10-17T10:13:39;3.87;;;3.10;;
1026;SDS011;502;48.746;9.214;2022-10-17T10:16:33;4.30;;;3.00;;
1026;SDS011;502;48.746;9.214;2022-10-17T10:19:10;5.87;;;3.10;;
1026;SDS011;502;48.746;9.214;2022-10-17T10:21:53;4.37;;;3.43;;
1026;SDS011;502;48.746;9.214;2022-10-17T10:24:21;8.93;;;3.20;;
1026;SDS011;502;48.746;9.214;2022-10-17T10:26:49;5.33;;;2.83;;
1026;SDS011;502;48.746;9.214;2022-10-17T10:29:25;7.23;;;3.13;;
1026;SDS011;502;48.746;9.214;2022-10-17T10:31:55;3.10;;;2.53;;
1026;SDS011;502;48.746;9.214;2022-10-17T10:34:23;4.27;;;3.30;;
1026;SDS011;502;48.746;9.214;2022-10-17T10:36:54;7.23;;;3.10;;
1026;SDS011;502;48.746;9.214;2022-10-17T10:39:27;5.03;;;2.87;;
1026;SDS011;502;48.746;9.214;2022-10-17T10:41:58;5.17;;;2.80;;
1026;SDS011;502;48.746;9.214;2022-10-17T10:44:25;3.90;;;2.70;;
1026;SDS011;502;48.746;9.214;2022-10-17T10:47:06;6.43;;;2.73;;
1026;SDS011;502;48.746;9.214;2022-10-17T10:49:35;6.73;;;3.00;;
1026;SDS011;502;48.746;9.214;2022-10-17T10:52:04;6.93;;;3.20;;
1026;SDS011;502;48.746;9.214;2022-10-17T10:54:33;4.50;;;3.00;;
1026;SDS011;502;48.746;9.214;2022-10-17T10:57:03;11.03;;;3.53;;
1026;SDS011;502;48.746;9.214;2022-10-17T11:02:32;6.97;;;3.57;;
1026;SDS011;502;48.746;9.214;2022-10-17T11:05:05;4.30;;;3.43;;
1026;SDS011;502;48.746;9.214;2022-10-17T11:07:40;2.90;;;2.67;;
1026;SDS011;502;48.746;9.214;2022-10-17T11:10:11;3.87;;;2.97;;
1026;SDS011;502;48.746;9.214;2022-10-17T11:12:40;5.37;;;2.80;;
1026;SDS011;502;48.746;9.214;2022-10-17T11:15:13;2.90;;;2.50;;
1026;SDS011;502;48.746;9.214;2022-10-17T11:17:47;4.33;;;2.67;;
1026;SDS011;502;48.746;9.214;2022-10-17T11:20:21;3.83;;;2.77;;
1026;SDS011;502;48.746;9.214;2022-10-17T11:22:57;6.03;;;2.70;;
1026;SDS011;502;48.746;9.214;2022-10-17T11:25:31;5.03;;;2.53;;
1026;SDS011;502;48.746;9.214;2022-10-17T11:27:59;3.90;;;2.10;;
1026;SDS011;502;48.746;9.214;2022-10-17T11:30:27;3.87;;;2.50;;
1026;SDS011;502;48.746;9.214;2022-10-17T11:33:04;5.70;;;2.80;;
1026;SDS011;502;48.746;9.214;2022-10-17T11:35:33;5.80;;;2.43;;
1026;SDS011;502;48.746;9.214;2022-10-17T11:38:05;8.20;;;2.57;;
1026;SDS011;502;48.746;9.214;2022-10-17T11:40:34;4.07;;;2.40;;
1026;SDS011;502;48.746;9.214;2022-10-17T11:43:02;3.03;;;2.30;;
1026;SDS011;502;48.746;9.214;2022-10-17T11:45:32;3.57;;;2.30;;
1026;SDS011;502;48.746;9.214;2022-10-17T11:48:05;4.07;;;2.50;;
1026;SDS011;502;48.746;9.214;2022-10-17T11:50:36;3.97;;;2.10;;
1026;SDS011;502;48.746;9.214;2022-10-17T11:53:07;3.40;;;1.93;;
1026;SDS011;502;48.746;9.214;2022-10-17T11:55:34;3.30;;;2.30;;
1026;SDS011;502;48.746;9.214;2022-10-17T11:58:11;3.80;;;2.30;;
1026;SDS011;502;48.746;9.214;2022-10-17T12:00:50;4.17;;;2.47;;
1026;SDS011;502;48.746;9.214;2022-10-17T12:03:27;3.27;;;1.80;;
1026;SDS011;502;48.746;9.214;2022-10-17T12:06:01;2.90;;;1.60;;
1026;SDS011;502;48.746;9.214;2022-10-17T12:08:32;4.43;;;2.23;;
1026;SDS011;502;48.746;9.214;2022-10-17T12:11:02;2.50;;;2.20;;
1026;SDS011;502;48.746;9.214;2022-10-17T12:13:45;4.27;;;2.40;;
1026;SDS011;502;48.746;9.214;2022-10-17T12:16:35;2.90;;;2.27;;
1026;SDS011;502;48.746;9.214;2022-10-17T12:19:13;2.43;;;2.10;;
1026;SDS011;502;48.746;9.214;2022-10-17T12:22:14;3.37;;;2.50;;
1026;SDS011;502;48.746;9.214;2022-10-17T12:24:51;4.60;;;2.10;;
1026;SDS011;502;48.746;9.214;2022-10-17T12:27:21;4.73;;;2.00;;
1026;SDS011;502;48.746;9.214;2022-10-17T12:29:58;4.50;;;2.50;;
1026;SDS011;502;48.746;9.214;2022-10-17T12:32:25;7.73;;;2.83;;
1026;SDS011;502;48.746;9.214;2022-10-17T12:34:52;2.93;;;2.07;;
1026;SDS011;502;48.746;9.214;2022-10-17T12:46:12;6.37;;;2.97;;
1026;SDS011;502;48.746;9.214;2022-10-17T12:52:15;3.23;;;2.10;;
1026;SDS011;502;48.746;9.214;2022-10-17T12:54:45;2.47;;;2.10;;
1026;SDS011;502;48.746;9.214;2022-10-17T12:57:18;4.53;;;1.97;;
1026;SDS011;502;48.746;9.214;2022-10-17T12:59:46;2.80;;;1.90;;
1026;SDS011;502;48.746;9.214;2022-10-17T13:02:16;2.70;;;1.67;;
1026;SDS011;502;48.746;9.214;2022-10-17T13:04:44;3.63;;;2.07;;
1026;SDS011;502;48.746;9.214;2022-10-17T13:07:13;2.03;;;1.83;;
1026;SDS011;502;48.746;9.214;2022-10-17T13:09:43;4.43;;;2.10;;
1026;SDS011;502;48.746;9.214;2022-10-17T13:12:11;5.23;;;3.07;;
1026;SDS011;502;48.746;9.214;2022-10-17T13:14:41;3.47;;;2.30;;
1026;SDS011;502;48.746;9.214;2022-10-17T13:17:18;2.97;;;2.10;;
1026;SDS011;502;48.746;9.214;2022-10-17T13:19:48;3.17;;;2.30;;
1026;SDS011;502;48.746;9.214;2022-10-17T13:22:15;3.30;;;2.13;;
1026;SDS011;502;48.746;9.214;2022-10-17T13:24:43;3.83;;;2.20;;
1026;SDS011;502;48.746;9.214;2022-10-17T13:27:21;8.27;;;2.40;;
1026;SDS011;502;48.746;9.214;2022-10-17T13:29:50;3.10;;;1.97;;
1026;SDS011;502;48.746;9.214;2022-10-17T13:32:17;1.90;;;1.70;;
1026;SDS011;502;48.746;9.214;2022-10-17T13:34:44;4.83;;;2.40;;
1026;SDS011;502;48.746;9.214;2022-10-17T13:37:11;3.97;;;2.87;;
1026;SDS011;502;48.746;9.214;2022-10-17T13:39:40;5.60;;;2.57;;
1026;SDS011;502;48.746;9.214;2022-10-17T13:42:13;4.17;;;2.80;;
1026;SDS011;502;48.746;9.214;2022-10-17T13:44:43;3.63;;;3.03;;
1026;SDS011;502;48.746;9.214;2022-10-17T13:47:20;3.93;;;2.90;;
1026;SDS011;502;48.746;9.214;2022-10-17T13:49:48;3.20;;;2.43;;
1026;SDS011;502;48.746;9.214;2022-10-17T13:52:16;4.90;;;3.30;;
1026;SDS011;502;48.746;9.214;2022-10-17T13:54:44;6.53;;;3.27;;
1026;SDS011;502;48.746;9.214;2022-10-17T13:57:17;4.87;;;2.97;;
1026;SDS011;502;48.746;9.214;2022-10-17T13:59:46;5.00;;;3.53;;
1026;SDS011;502;48.746;9.214;2022-10-17T14:02:15;4.17;;;3.10;;
1026;SDS011;502;48.746;9.214;2022-10-17T14:04:44;3.57;;;2.97;;
1026;SDS011;502;48.746;9.214;2022-10-17T14:07:23;3.20;;;2.90;;
1026;SDS011;502;48.746;9.214;2022-10-17T14:09:51;5.70;;;3.50;;
1026;SDS011;502;48.746;9.214;2022-10-17T14:12:18;4.33;;;3.33;;
1026;SDS011;502;48.746;9.214;2022-10-17T14:14:46;4.63;;;3.30;;
1026;SDS011;502;48.746;9.214;2022-10-17T14:17:14;5.00;;;3.33;;
1026;SDS011;502;48.746;9.214;2022-10-17T14:19:41;3.77;;;3.37;;
1026;SDS011;502;48.746;9.214;2022-10-17T14:22:15;6.13;;;3.40;;
1026;SDS011;502;48.746;9.214;2022-10-17T14:24:49;2.40;;;2.20;;
1026;SDS011;502;48.746;9.214;2022-10-17T14:27:28;2.80;;;2.33;;
1026;SDS011;502;48.746;9.214;2022-10-17T14:29:56;3.70;;;2.87;;
1026;SDS011;502;48.746;9.214;2022-10-17T14:32:27;4.10;;;2.67;;
1026;SDS011;502;48.746;9.214;2022-10-17T14:34:54;3.63;;;2.57;;
1026;SDS011;502;48.746;9.214;2022-10-17T14:40:13;4.47;;;3.00;;
1026;SDS011;502;48.746;9.214;2022-10-17T14:42:41;4.63;;;2.90;;
1026;SDS011;502;48.746;9.214;2022-10-17T14:45:11;4.30;;;2.50;;
1026;SDS011;502;48.746;9.214;2022-10-17T14:47:38;4.10;;;2.63;;
1026;SDS011;502;48.746;9.214;2022-10-17T14:50:07;3.17;;;2.60;;
1026;SDS011;502;48.746;9.214;2022-10-17T14:52:58;5.67;;;2.83;;
1026;SDS011;502;48.746;9.214;2022-10-17T14:55:27;5.40;;;2.57;;
1026;SDS011;502;48.746;9.214;2022-10-17T14:57:54;2.80;;;2.50;;
1026;SDS011;502;48.746;9.214;2022-10-17T15:00:21;3.43;;;2.70;;
1026;SDS011;502;48.746;9.214;2022-10-17T15:02:49;4.93;;;3.00;;
1026;SDS011;502;48.746;9.214;2022-10-17T15:05:30;7.97;;;2.70;;
1026;SDS011;502;48.746;9.214;2022-10-17T15:07:59;3.53;;;3.23;;
1026;SDS011;502;48.746;9.214;2022-10-17T15:10:31;4.53;;;2.77;;
1026;SDS011;502;48.746;9.214;2022-10-17T15:12:59;3.00;;;2.70;;
1026;SDS011;502;48.746;9.214;2022-10-17T15:15:26;4.80;;;3.17;;
1026;SDS011;502;48.746;9.214;2022-10-17T15:17:53;5.00;;;2.70;;
1026;SDS011;502;48.746;9.214;2022-10-17T15:20:19;4.33;;;3.17;;
1026;SDS011;502;48.746;9.214;2022-10-17T15:22:50;5.10;;;3.30;;
1026;SDS011;502;48.746;9.214;2022-10-17T15:25:18;3.97;;;2.80;;
1026;SDS011;502;48.746;9.214;2022-10-17T15:27:45;3.20;;;2.90;;
1026;SDS011;502;48.746;9.214;2022-10-17T15:30:15;4.67;;;3.13;;
1026;SDS011;502;48.746;9.214;2022-10-17T15:32:44;3.23;;;2.60;;
1026;SDS011;502;48.746;9.214;2022-10-17T15:35:10;5.30;;;3.23;;
1026;SDS011;502;48.746;9.214;2022-10-17T15:37:39;3.77;;;3.03;;
1026;SDS011;502;48.746;9.214;2022-10-17T15:40:08;3.73;;;3.17;;
1026;SDS011;502;48.746;9.214;2022-10-17T15:42:41;7.80;;;3.60;;
1026;SDS011;502;48.746;9.214;2022-10-17T15:45:09;4.27;;;3.20;;
1026;SDS011;502;48.746;9.214;2022-10-17T15:47:36;5.30;;;3.03;;
1026;SDS011;502;48.746;9.214;2022-10-17T15:50:04;4.07;;;3.27;;
1026;SDS011;502;48.746;9.214;2022-10-17T15:52:32;4.53;;;3.40;;
1026;SDS011;502;48.746;9.214;2022-10-17T15:54:59;5.67;;;3.07;;
1026;SDS011;502;48.746;9.214;2022-10-17T15:57:26;5.70;;;3.30;;
1026;SDS011;502;48.746;9.214;2022-10-17T15:59:57;6.13;;;2.90;;
1026;SDS011;502;48.746;9.214;2022-10-17T16:02:24;4.70;;;3.00;;
1026;SDS011;502;48.746;9.214;2022-10-17T16:04:51;5.27;;;3.07;;
1026;SDS011;502;48.746;9.214;2022-10-17T16:07:18;7.17;;;3.00;;
1026;SDS011;502;48.746;9.214;2022-10-17T16:09:45;5.23;;;3.20;;